createdAt,value
2023-04-10T00:00:34.986Z,88.62
2023-04-10T00:01:35.032Z,88.62
2023-04-10T00:02:35.161Z,88.34
2023-04-10T00:03:35.136Z,88.71
2023-04-10T00:04:35.101Z,89.09
2023-04-10T00:05:35.081Z,88.81
2023-04-10T00:06:35.093Z,89.28
2023-04-10T00:07:35.122Z,88.90
2023-04-10T00:08:35.161Z,89.00
2023-04-10T00:09:35.178Z,89.28
2023-04-10T00:10:35.180Z,89.19
2023-04-10T00:11:35.204Z,89.38
2023-04-10T00:12:35.220Z,89.38
2023-04-10T00:13:35.243Z,89.28
2023-04-10T00:14:35.257Z,89.76
2023-04-10T00:15:35.278Z,89.72
2023-04-10T00:16:35.327Z,89.76
2023-04-10T00:17:35.344Z,89.67
2023-04-10T00:18:35.345Z,89.95
2023-04-10T00:19:35.359Z,90.00
2023-04-10T00:20:35.384Z,89.57
2023-04-10T00:21:35.398Z,89.76
2023-04-10T00:22:35.418Z,89.57
2023-04-10T00:23:35.434Z,90.14
2023-04-10T00:24:35.454Z,89.86
2023-04-10T00:25:35.482Z,90.00
2023-04-10T00:26:35.495Z,90.61
2023-04-10T00:27:35.539Z,90.61
2023-04-10T00:28:35.536Z,90.57
2023-04-10T00:29:35.555Z,90.19
2023-04-10T00:30:35.581Z,90.76
2023-04-10T00:31:35.642Z,90.90
2023-04-10T00:32:35.645Z,90.99
2023-04-10T00:33:35.638Z,90.71
2023-04-10T00:34:35.662Z,90.76
2023-04-10T00:35:35.693Z,90.85
2023-04-10T00:36:35.698Z,91.24
2023-04-10T00:37:35.767Z,91.33
2023-04-10T00:38:35.740Z,91.24
2023-04-10T00:39:35.755Z,91.04
2023-04-10T00:40:35.772Z,91.24
2023-04-10T00:41:35.796Z,91.24
2023-04-10T00:42:35.811Z,91.42
2023-04-10T00:43:35.841Z,91.14
2023-04-10T00:44:35.856Z,91.89
2023-04-10T00:45:35.891Z,91.71
2023-04-10T00:46:36.234Z,91.89
2023-04-10T00:47:35.945Z,91.71
2023-04-10T00:48:35.932Z,91.89
2023-04-10T00:49:35.957Z,91.89
2023-04-10T00:50:36.004Z,91.99
2023-04-10T00:51:36.013Z,92.09
2023-04-10T00:52:36.013Z,91.61
2023-04-10T00:53:36.032Z,92.18
2023-04-10T00:54:36.050Z,92.18
2023-04-10T00:55:36.092Z,92.37
2023-04-10T00:56:36.093Z,92.18
2023-04-10T00:57:36.113Z,92.75
2023-04-10T00:58:36.126Z,92.18
2023-04-10T00:59:36.181Z,92.28
2023-04-10T01:00:36.165Z,92.94
2023-04-10T01:01:36.293Z,92.85
2023-04-10T01:02:36.330Z,92.66
2023-04-10T01:03:36.483Z,92.85
2023-04-10T01:04:36.398Z,92.47
2023-04-10T01:05:36.265Z,92.56
2023-04-10T01:06:36.282Z,92.94
2023-04-10T01:07:36.315Z,92.94
2023-04-10T01:08:36.324Z,92.85
2023-04-10T01:09:36.343Z,92.66
2023-04-10T01:10:36.372Z,92.85
2023-04-10T01:11:36.394Z,92.94
2023-04-10T01:12:36.410Z,92.75
2023-04-10T01:13:36.421Z,92.75
2023-04-10T01:14:36.444Z,92.47
2023-04-10T01:15:36.459Z,92.56
2023-04-10T01:16:36.499Z,92.66
2023-04-10T01:17:36.530Z,93.41
2023-04-10T01:18:36.519Z,93.04
2023-04-10T01:19:36.536Z,93.41
2023-04-10T01:20:36.558Z,93.80
2023-04-10T01:21:36.583Z,94.37
2023-04-10T01:22:36.621Z,94.08
2023-04-10T01:23:36.650Z,94.08
2023-04-10T01:24:36.635Z,94.27
2023-04-10T01:25:36.651Z,94.27
2023-04-10T01:26:36.676Z,94.08
2023-04-10T01:27:36.693Z,94.46
2023-04-10T01:28:36.736Z,94.08
2023-04-10T01:29:36.738Z,94.27
2023-04-10T01:30:36.770Z,94.65
2023-04-10T01:31:36.772Z,94.27
2023-04-10T01:32:36.880Z,94.46
2023-04-10T01:33:36.807Z,94.46
2023-04-10T01:34:36.896Z,94.65
2023-04-10T01:35:36.868Z,94.18
2023-04-10T01:36:36.866Z,94.65
2023-04-10T01:37:36.911Z,94.18
2023-04-10T01:38:36.912Z,94.93
2023-04-10T01:39:36.930Z,95.12
2023-04-10T01:40:36.944Z,95.03
2023-04-10T01:41:36.969Z,95.12
2023-04-10T01:42:36.988Z,95.12
2023-04-10T01:43:37.038Z,95.03
2023-04-10T01:44:37.021Z,94.93
2023-04-10T01:45:37.063Z,94.74
2023-04-10T01:46:37.102Z,94.84
2023-04-10T01:47:37.144Z,95.03
2023-04-10T01:48:37.101Z,95.12
2023-04-10T01:49:37.117Z,95.60
2023-04-10T01:50:37.139Z,95.89
2023-04-10T01:51:44.342Z,95.70
2023-04-10T01:53:41.652Z,95.89
2023-04-10T01:54:41.173Z,95.70
2023-04-10T01:56:45.186Z,96.17
2023-04-10T01:57:45.195Z,95.98
2023-04-10T01:59:49.681Z,96.17
2023-04-10T02:00:49.218Z,95.70
2023-04-10T02:02:42.208Z,96.64
2023-04-10T02:03:42.221Z,96.22
2023-04-10T02:05:46.626Z,96.41
2023-04-10T02:06:46.152Z,96.59
2023-04-10T02:08:50.156Z,96.74
2023-04-10T02:09:50.166Z,96.88
2023-04-10T02:11:54.709Z,97.55
2023-04-10T02:12:54.185Z,97.45
2023-04-10T02:14:58.189Z,97.26
2023-04-10T02:15:58.218Z,97.55
2023-04-10T02:18:02.707Z,97.64
2023-04-10T02:19:02.209Z,97.64
2023-04-10T02:20:02.275Z,97.45
2023-04-10T02:21:02.247Z,97.55
2023-04-10T02:22:02.259Z,97.17
2023-04-10T02:23:02.284Z,97.45
2023-04-10T02:24:02.315Z,98.11
2023-04-10T02:25:02.321Z,98.02
2023-04-10T02:26:02.338Z,97.64
2023-04-10T02:27:02.357Z,98.02
2023-04-10T02:28:02.410Z,97.83
2023-04-10T02:29:02.396Z,98.21
2023-04-10T02:30:02.467Z,98.11
2023-04-10T02:31:02.463Z,98.02
2023-04-10T02:32:02.464Z,97.92
2023-04-10T02:33:02.572Z,98.02
2023-04-10T02:34:02.550Z,97.74
2023-04-10T02:35:02.531Z,98.02
2023-04-10T02:36:02.610Z,98.02
2023-04-10T02:37:02.567Z,98.02
2023-04-10T02:38:02.562Z,98.11
2023-04-10T02:39:02.589Z,98.21
2023-04-10T02:40:02.611Z,98.11
2023-04-10T02:41:02.627Z,98.49
2023-04-10T02:42:02.639Z,98.02
2023-04-10T02:43:02.660Z,97.92
2023-04-10T02:44:02.722Z,98.21
2023-04-10T02:45:02.704Z,98.21
2023-04-10T02:46:02.722Z,98.30
2023-04-10T02:47:02.859Z,98.49
2023-04-10T02:48:02.836Z,98.11
2023-04-10T02:49:02.782Z,98.21
2023-04-10T02:50:02.802Z,98.30
2023-04-10T02:51:02.846Z,98.21
2023-04-10T02:52:02.837Z,98.21
2023-04-10T02:53:02.858Z,98.59
2023-04-10T02:54:02.876Z,98.40
2023-04-10T02:55:02.897Z,98.59
2023-04-10T02:56:02.926Z,98.30
2023-04-10T02:57:02.960Z,98.78
2023-04-10T02:58:02.953Z,98.78
2023-04-10T02:59:02.968Z,98.59
2023-04-10T03:00:02.983Z,98.59
2023-04-10T03:01:03.004Z,98.78
2023-04-10T03:02:03.101Z,98.59
2023-04-10T03:03:03.178Z,99.06
2023-04-10T03:04:03.148Z,99.06
2023-04-10T03:05:03.083Z,98.87
2023-04-10T03:06:03.108Z,99.16
2023-04-10T03:07:03.129Z,98.21
2023-04-10T03:08:03.138Z,98.68
2023-04-10T03:09:03.153Z,98.59
2023-04-10T03:10:03.173Z,98.21
2023-04-10T03:11:03.206Z,98.30
2023-04-10T03:12:03.212Z,98.59
2023-04-10T03:13:03.238Z,98.40
2023-04-10T03:14:03.249Z,98.40
2023-04-10T03:15:03.277Z,98.87
2023-04-10T03:16:03.338Z,98.78
2023-04-10T03:17:03.312Z,98.78
2023-04-10T03:18:03.382Z,98.78
2023-04-10T03:19:03.342Z,98.78
2023-04-10T03:20:03.372Z,98.87
2023-04-10T03:21:03.393Z,99.44
2023-04-10T03:22:03.404Z,99.16
2023-04-10T03:23:03.420Z,99.44
2023-04-10T03:24:03.437Z,99.63
2023-04-10T03:25:03.457Z,99.44
2023-04-10T03:26:03.494Z,99.44
2023-04-10T03:27:03.516Z,99.44
2023-04-10T03:28:03.534Z,99.82
2023-04-10T03:29:03.534Z,99.44
2023-04-10T03:30:03.553Z,99.54
2023-04-10T03:31:03.640Z,99.73
2023-04-10T03:32:03.672Z,99.82
2023-04-10T03:33:03.638Z,99.54
2023-04-10T03:34:03.675Z,99.63
2023-04-10T03:35:03.646Z,99.91
2023-04-10T03:36:03.734Z,99.82
2023-04-10T03:37:03.689Z,99.99
2023-04-10T03:38:03.711Z,99.91
2023-04-10T03:39:03.720Z,99.99
2023-04-10T03:40:03.739Z,99.99
2023-04-10T03:41:03.766Z,99.82
2023-04-10T03:42:03.780Z,99.54
2023-04-10T03:43:03.803Z,99.82
2023-04-10T03:44:03.833Z,99.82
2023-04-10T03:45:03.838Z,99.91
2023-04-10T03:46:03.856Z,99.91
2023-04-10T03:47:03.959Z,99.73
2023-04-10T03:48:03.997Z,99.73
2023-04-10T03:49:03.909Z,99.99
2023-04-10T03:50:03.943Z,99.91
2023-04-10T03:51:03.958Z,99.73
2023-04-10T03:52:03.967Z,99.73
2023-04-10T03:53:03.981Z,99.54
2023-04-10T03:54:04.008Z,99.99
2023-04-10T03:55:04.021Z,99.99
2023-04-10T03:56:04.042Z,99.99
2023-04-10T03:57:04.060Z,99.91
2023-04-10T03:58:04.072Z,99.99
2023-04-10T03:59:04.095Z,99.91
2023-04-10T04:00:04.113Z,99.91
2023-04-10T04:01:04.138Z,99.82
2023-04-10T04:02:04.219Z,99.91
2023-04-10T04:03:04.275Z,99.82
2023-04-10T04:04:04.356Z,99.54
2023-04-10T04:05:04.307Z,99.44
2023-04-10T04:06:04.259Z,99.73
2023-04-10T04:07:04.269Z,99.82
2023-04-10T04:08:04.272Z,99.63
2023-04-10T04:09:04.282Z,99.73
2023-04-10T04:10:04.306Z,99.44
2023-04-10T04:11:04.316Z,99.26
2023-04-10T04:12:04.336Z,99.82
2023-04-10T04:13:04.356Z,99.44
2023-04-10T04:14:04.389Z,99.54
2023-04-10T04:15:04.392Z,99.54
2023-04-10T04:16:04.411Z,99.63
2023-04-10T04:17:04.499Z,99.35
2023-04-10T04:18:04.473Z,99.63
2023-04-10T04:19:04.467Z,99.63
2023-04-10T04:20:04.493Z,99.91
2023-04-10T04:21:04.504Z,99.73
2023-04-10T04:22:04.546Z,99.16
2023-04-10T04:23:04.544Z,98.87
2023-04-10T04:24:04.569Z,99.06
2023-04-10T04:25:04.589Z,98.78
2023-04-10T04:26:04.600Z,98.97
2023-04-10T04:27:04.617Z,98.78
2023-04-10T04:28:04.640Z,98.40
2023-04-10T04:29:04.681Z,98.78
2023-04-10T04:30:04.703Z,98.59
2023-04-10T04:31:04.700Z,98.30
2023-04-10T04:32:04.785Z,98.40
2023-04-10T04:33:04.821Z,98.30
2023-04-10T04:34:04.756Z,98.40
2023-04-10T04:35:04.773Z,98.49
2023-04-10T04:36:04.861Z,98.40
2023-04-10T04:37:04.815Z,98.59
2023-04-10T04:38:04.825Z,98.68
2023-04-10T04:39:04.863Z,98.78
2023-04-10T04:40:04.872Z,98.40
2023-04-10T04:41:04.885Z,98.49
2023-04-10T04:42:04.902Z,98.68
2023-04-10T04:43:04.922Z,98.21
2023-04-10T04:44:04.960Z,98.49
2023-04-10T04:45:04.962Z,97.92
2023-04-10T04:46:04.999Z,98.21
2023-04-10T04:47:05.000Z,98.11
2023-04-10T04:48:05.058Z,98.21
2023-04-10T04:49:05.039Z,98.21
2023-04-10T04:50:05.065Z,98.21
2023-04-10T04:51:05.086Z,98.21
2023-04-10T04:52:05.095Z,98.21
2023-04-10T04:53:06.698Z,97.92
2023-04-10T04:54:05.132Z,98.11
2023-04-10T04:55:05.158Z,98.11
2023-04-10T04:56:05.183Z,98.02
2023-04-10T04:57:05.195Z,97.64
2023-04-10T04:58:05.208Z,97.45
2023-04-10T04:59:05.225Z,97.64
2023-04-10T05:00:05.248Z,97.74
2023-04-10T05:01:05.412Z,97.64
2023-04-10T05:02:05.293Z,97.45
2023-04-10T05:03:05.392Z,97.41
2023-04-10T05:04:05.474Z,97.50
2023-04-10T05:05:05.338Z,97.12
2023-04-10T05:06:05.358Z,96.97
2023-04-10T05:07:05.380Z,96.93
2023-04-10T05:08:05.395Z,97.22
2023-04-10T05:09:05.425Z,97.22
2023-04-10T05:10:05.437Z,96.83
2023-04-10T05:11:05.453Z,96.26
2023-04-10T05:12:05.470Z,96.08
2023-04-10T05:13:05.502Z,96.36
2023-04-10T05:14:05.519Z,96.08
2023-04-10T05:15:05.528Z,96.08
2023-04-10T05:16:05.595Z,95.98
2023-04-10T05:17:05.568Z,95.60
2023-04-10T05:18:05.753Z,95.51
2023-04-10T05:19:05.609Z,95.51
2023-04-10T05:20:05.625Z,95.41
2023-04-10T05:21:05.647Z,94.84
2023-04-10T05:22:05.659Z,94.56
2023-04-10T05:23:05.681Z,94.56
2023-04-10T05:24:05.701Z,94.93
2023-04-10T05:25:05.727Z,94.89
2023-04-10T05:26:05.740Z,94.70
2023-04-10T05:27:05.761Z,94.32
2023-04-10T05:28:05.782Z,93.65
2023-04-10T05:29:05.807Z,94.23
2023-04-10T05:30:05.814Z,93.75
2023-04-10T05:31:05.864Z,93.18
2023-04-10T05:32:05.858Z,93.65
2023-04-10T05:33:05.873Z,93.56
2023-04-10T05:34:05.896Z,92.71
2023-04-10T05:35:05.915Z,92.71
2023-04-10T05:36:06.000Z,92.61
2023-04-10T05:37:05.963Z,92.42
2023-04-10T05:38:05.976Z,92.61
2023-04-10T05:39:06.002Z,92.08
2023-04-10T05:40:06.036Z,91.99
2023-04-10T05:41:06.050Z,91.23
2023-04-10T05:42:06.059Z,91.13
2023-04-10T05:43:06.077Z,90.75
2023-04-10T05:44:06.098Z,90.37
2023-04-10T05:45:06.124Z,90.66
2023-04-10T05:46:06.197Z,89.90
2023-04-10T05:47:06.155Z,89.33
2023-04-10T05:48:06.249Z,89.61
2023-04-10T05:49:06.204Z,89.37
2023-04-10T05:50:06.216Z,89.00
2023-04-10T05:51:06.241Z,88.71
2023-04-10T05:52:06.259Z,88.23
2023-04-10T05:53:06.279Z,87.76
2023-04-10T05:54:06.303Z,87.47
2023-04-10T05:55:06.339Z,86.85
2023-04-10T05:56:06.345Z,86.66
2023-04-10T05:57:06.360Z,86.47
2023-04-10T05:58:06.380Z,85.99
2023-04-10T05:59:06.404Z,85.18
2023-04-10T06:00:06.424Z,85.18
2023-04-10T06:01:06.444Z,85.47
2023-04-10T06:02:06.546Z,85.37
2023-04-10T06:03:06.532Z,84.89
2023-04-10T06:04:06.598Z,84.52
2023-04-10T06:05:06.611Z,84.52
2023-04-10T06:06:06.552Z,84.23
2023-04-10T06:07:06.570Z,82.99
2023-04-10T06:08:06.591Z,82.80
2023-04-10T06:09:06.613Z,82.90
2023-04-10T06:10:06.627Z,82.90
2023-04-10T06:11:06.670Z,83.37
2023-04-10T06:12:06.674Z,82.70
2023-04-10T06:13:08.230Z,83.18
2023-04-10T06:14:06.720Z,83.09
2023-04-10T06:15:06.740Z,83.18
2023-04-10T06:16:06.768Z,82.51
2023-04-10T06:17:06.791Z,83.18
2023-04-10T06:18:06.805Z,83.09
2023-04-10T06:19:06.847Z,82.61
2023-04-10T06:20:06.853Z,82.90
2023-04-10T06:21:06.876Z,82.51
2023-04-10T06:22:06.892Z,82.32
2023-04-10T06:23:06.923Z,82.14
2023-04-10T06:24:06.934Z,82.42
2023-04-10T06:25:07.317Z,82.46
2023-04-10T06:26:06.973Z,82.37
2023-04-10T06:27:06.996Z,81.98
2023-04-10T06:28:07.021Z,81.60
2023-04-10T06:29:07.044Z,81.13
2023-04-10T06:30:07.073Z,80.84
2023-04-10T06:31:07.185Z,80.84
2023-04-10T06:32:07.112Z,80.94
2023-04-10T06:33:07.140Z,80.94
2023-04-10T06:34:07.150Z,81.07
2023-04-10T06:35:07.176Z,80.79
2023-04-10T06:36:07.212Z,80.60
2023-04-10T06:37:07.230Z,80.12
2023-04-10T06:38:07.238Z,79.74
2023-04-10T06:39:07.513Z,79.74
2023-04-10T06:40:07.287Z,79.83
2023-04-10T06:41:07.301Z,79.78
2023-04-10T06:42:07.322Z,79.88
2023-04-10T06:43:07.359Z,78.73
2023-04-10T06:44:07.385Z,77.62
2023-04-10T06:45:07.389Z,76.86
2023-04-10T06:46:07.413Z,76.29
2023-04-10T06:47:07.495Z,76.57
2023-04-10T06:48:07.490Z,76.20
2023-04-10T06:49:07.481Z,76.23
2023-04-10T06:50:07.507Z,75.76
2023-04-10T06:51:07.621Z,74.71
2023-04-10T06:52:07.561Z,74.52
2023-04-10T06:53:07.575Z,74.19
2023-04-10T06:54:07.589Z,74.57
2023-04-10T06:55:07.620Z,74.99
2023-04-10T06:56:07.654Z,74.90
2023-04-10T06:57:07.662Z,74.48
2023-04-10T06:58:07.690Z,75.34
2023-04-10T06:59:07.716Z,75.05
2023-04-10T07:00:07.731Z,75.72
2023-04-10T07:01:07.807Z,75.81
2023-04-10T07:02:07.824Z,76.20
2023-04-10T07:03:07.857Z,76.10
2023-04-10T07:04:07.985Z,76.39
2023-04-10T07:05:07.842Z,76.29
2023-04-10T07:06:07.866Z,75.72
2023-04-10T07:07:07.890Z,76.39
2023-04-10T07:08:07.915Z,76.67
2023-04-10T07:09:07.936Z,76.67
2023-04-10T07:10:07.964Z,76.96
2023-04-10T07:11:07.985Z,76.57
2023-04-10T07:12:08.012Z,76.29
2023-04-10T07:13:08.021Z,76.57
2023-04-10T07:14:08.042Z,76.39
2023-04-10T07:15:08.076Z,76.10
2023-04-10T07:16:08.111Z,75.66
2023-04-10T07:17:08.115Z,75.91
2023-04-10T07:18:08.157Z,75.66
2023-04-10T07:19:08.162Z,75.37
2023-04-10T07:20:08.188Z,75.57
2023-04-10T07:21:08.204Z,75.28
2023-04-10T07:22:08.227Z,74.80
2023-04-10T07:23:08.247Z,73.66
2023-04-10T07:24:08.270Z,73.85
2023-04-10T07:25:08.290Z,74.04
2023-04-10T07:26:08.316Z,74.04
2023-04-10T07:27:08.342Z,73.66
2023-04-10T07:28:08.363Z,74.17
2023-04-10T07:29:08.389Z,73.88
2023-04-10T07:30:08.415Z,73.88
2023-04-10T07:31:08.433Z,73.69
2023-04-10T07:32:08.525Z,73.32
2023-04-10T07:33:08.599Z,72.45
2023-04-10T07:34:08.497Z,72.07
2023-04-10T07:35:08.519Z,72.17
2023-04-10T07:36:08.615Z,71.88
2023-04-10T07:37:08.574Z,71.78
2023-04-10T07:38:08.591Z,72.30
2023-04-10T07:39:08.613Z,72.11
2023-04-10T07:40:08.633Z,71.82
2023-04-10T07:41:08.653Z,71.34
2023-04-10T07:42:08.677Z,70.77
2023-04-10T07:43:08.697Z,70.96
2023-04-10T07:44:08.737Z,70.48
2023-04-10T07:45:08.747Z,70.67
2023-04-10T07:46:08.832Z,70.48
2023-04-10T07:47:08.790Z,69.53
2023-04-10T07:48:08.837Z,69.53
2023-04-10T07:49:09.111Z,69.24
2023-04-10T07:50:08.863Z,69.66
2023-04-10T07:51:08.885Z,68.99
2023-04-10T07:52:08.912Z,69.27
2023-04-10T07:53:08.935Z,68.90
2023-04-10T07:54:08.952Z,68.61
2023-04-10T07:55:08.982Z,67.46
2023-04-10T07:56:09.006Z,67.18
2023-04-10T07:57:09.040Z,67.08
2023-04-10T07:58:09.046Z,67.27
2023-04-10T07:59:09.072Z,66.79
2023-04-10T08:00:09.102Z,66.79
2023-04-10T08:01:09.116Z,67.55
2023-04-10T08:02:09.215Z,67.78
2023-04-10T08:03:09.340Z,67.40
2023-04-10T08:04:09.353Z,67.21
2023-04-10T08:05:09.251Z,67.78
2023-04-10T08:06:09.240Z,67.11
2023-04-10T08:07:09.270Z,66.73
2023-04-10T08:08:09.278Z,66.54
2023-04-10T08:09:09.306Z,66.92
2023-04-10T08:10:09.332Z,67.34
2023-04-10T08:11:09.356Z,67.43
2023-04-10T08:12:09.375Z,66.86
2023-04-10T08:13:09.400Z,66.38
2023-04-10T08:14:09.422Z,66.67
2023-04-10T08:15:09.451Z,65.90
2023-04-10T08:16:09.472Z,65.08
2023-04-10T08:17:09.538Z,64.69
2023-04-10T08:18:09.520Z,64.66
2023-04-10T08:19:09.555Z,65.08
2023-04-10T08:20:09.573Z,65.65
2023-04-10T08:21:09.595Z,65.17
2023-04-10T08:22:09.628Z,65.74
2023-04-10T08:24:09.670Z,65.17
2023-04-10T08:25:09.695Z,65.39
2023-04-10T08:26:09.716Z,64.82
2023-04-10T08:27:09.740Z,63.96
2023-04-10T08:28:09.765Z,64.34
2023-04-10T08:29:09.800Z,64.05
2023-04-10T08:30:09.831Z,63.19
2023-04-10T08:31:09.904Z,63.57
2023-04-10T08:32:09.877Z,63.03
2023-04-10T08:33:09.896Z,62.84
2023-04-10T08:34:09.922Z,62.65
2023-04-10T08:35:09.962Z,62.07
2023-04-10T08:36:10.036Z,61.02
2023-04-10T08:37:11.361Z,61.02
2023-04-10T08:38:14.200Z,61.79
2023-04-10T08:39:10.048Z,61.69
2023-04-10T08:40:10.085Z,60.54
2023-04-10T08:41:10.104Z,60.93
2023-04-10T08:42:10.112Z,60.54
2023-04-10T08:43:10.146Z,61.02
2023-04-10T08:44:10.170Z,61.79
2023-04-10T08:45:10.234Z,62.07
2023-04-10T08:46:10.238Z,62.59
2023-04-10T08:47:10.245Z,61.15
2023-04-10T08:48:10.273Z,59.61
2023-04-10T08:49:10.297Z,60.28
2023-04-10T08:50:10.322Z,59.80
2023-04-10T08:51:15.602Z,60.00
2023-04-10T08:52:10.372Z,59.97
2023-04-10T08:53:10.397Z,61.24
2023-04-10T08:54:10.422Z,61.15
2023-04-10T08:55:10.449Z,60.28
2023-04-10T08:56:10.477Z,60.67
2023-04-10T08:57:11.130Z,60.00
2023-04-10T08:58:10.525Z,60.47
2023-04-10T08:59:10.558Z,60.38
2023-04-10T09:01:10.633Z,60.19
2023-04-10T09:02:10.719Z,59.71
2023-04-10T09:03:10.740Z,59.80
2023-04-10T09:04:10.810Z,60.09
2023-04-10T09:05:10.707Z,60.38
2023-04-10T09:06:10.729Z,59.71
2023-04-10T09:07:10.760Z,59.71
2023-04-10T09:08:10.795Z,59.80
2023-04-10T09:09:10.809Z,59.90
2023-04-10T09:10:10.834Z,60.09
2023-04-10T09:11:10.864Z,60.19
2023-04-10T09:12:10.896Z,59.71
2023-04-10T09:13:10.917Z,59.71
2023-04-10T09:14:10.935Z,59.33
2023-04-10T09:15:10.960Z,59.55
2023-04-10T09:16:11.017Z,59.64
2023-04-10T09:17:11.069Z,59.45
2023-04-10T09:18:11.101Z,58.78
2023-04-10T09:19:11.087Z,58.01
2023-04-10T09:20:11.088Z,58.01
2023-04-10T09:21:11.118Z,57.72
2023-04-10T09:22:11.161Z,57.92
2023-04-10T09:23:11.164Z,57.92
2023-04-10T09:24:11.191Z,58.78
2023-04-10T09:25:11.217Z,59.26
2023-04-10T09:26:11.241Z,59.26
2023-04-10T09:27:11.276Z,58.59
2023-04-10T09:28:11.291Z,58.01
2023-04-10T09:29:11.321Z,58.20
2023-04-10T09:30:11.338Z,58.39
2023-04-10T09:31:11.425Z,59.26
2023-04-10T09:32:11.395Z,59.96
2023-04-10T09:33:11.421Z,59.77
2023-04-10T09:34:11.468Z,60.05
2023-04-10T09:35:11.478Z,58.62
2023-04-10T09:36:11.517Z,58.04
2023-04-10T09:37:11.522Z,57.95
2023-04-10T09:38:11.548Z,58.33
2023-04-10T09:39:11.580Z,58.14
2023-04-10T09:40:11.613Z,57.75
2023-04-10T09:41:11.625Z,56.60
2023-04-10T09:42:11.669Z,55.83
2023-04-10T09:43:11.683Z,56.12
2023-04-10T09:44:11.700Z,55.45
2023-04-10T09:45:11.735Z,54.49
2023-04-10T09:46:11.799Z,54.04
2023-04-10T09:47:11.781Z,54.21
2023-04-10T09:48:11.807Z,53.63
2023-04-10T09:49:11.836Z,54.13
2023-04-10T09:50:11.856Z,53.05
2023-04-10T09:51:11.884Z,52.76
2023-04-10T09:52:11.911Z,52.98
2023-04-10T09:53:11.937Z,53.36
2023-04-10T09:54:11.965Z,53.08
2023-04-10T09:55:12.002Z,52.40
2023-04-10T09:56:12.013Z,52.19
2023-04-10T09:57:12.041Z,52.89
2023-04-10T09:58:12.072Z,53.17
2023-04-10T09:59:12.093Z,54.04
2023-04-10T10:00:12.116Z,53.08
2023-04-10T10:01:12.142Z,53.08
2023-04-10T10:02:12.228Z,52.98
2023-04-10T10:03:12.372Z,52.91
2023-04-10T10:04:12.362Z,52.72
2023-04-10T10:05:12.404Z,53.11
2023-04-10T10:06:12.272Z,51.67
2023-04-10T10:07:12.299Z,50.70
2023-04-10T10:08:12.354Z,50.90
2023-04-10T10:09:12.353Z,50.99
2023-04-10T10:10:12.376Z,51.11
2023-04-10T10:11:12.411Z,50.32
2023-04-10T10:12:12.437Z,50.73
2023-04-10T10:13:12.455Z,49.48
2023-04-10T10:14:12.492Z,50.05
2023-04-10T10:15:12.521Z,50.73
2023-04-10T10:16:12.552Z,49.87
2023-04-10T10:17:12.557Z,49.48
2023-04-10T10:18:12.587Z,48.61
2023-04-10T10:19:12.621Z,48.23
2023-04-10T10:20:12.647Z,48.52
2023-04-10T10:21:12.670Z,48.61
2023-04-10T10:22:12.699Z,48.13
2023-04-10T10:23:12.726Z,48.43
2023-04-10T10:24:12.752Z,48.04
2023-04-10T10:25:12.791Z,48.04
2023-04-10T10:26:12.808Z,47.46
2023-04-10T10:27:12.830Z,48.43
2023-04-10T10:28:12.862Z,48.13
2023-04-10T10:29:12.886Z,48.23
2023-04-10T10:30:28.366Z,47.56
2023-04-10T10:31:13.001Z,47.17
2023-04-10T10:32:12.965Z,47.17
2023-04-10T10:33:12.994Z,46.50
2023-04-10T10:34:13.035Z,46.50
2023-04-10T10:35:13.049Z,46.81
2023-04-10T10:36:13.098Z,46.69
2023-04-10T10:37:13.103Z,46.59
2023-04-10T10:38:13.129Z,46.59
2023-04-10T10:39:13.159Z,46.59
2023-04-10T10:40:13.188Z,46.79
2023-04-10T10:41:13.222Z,46.79
2023-04-10T10:42:13.251Z,46.79
2023-04-10T10:43:13.277Z,47.10
2023-04-10T10:44:13.333Z,47.10
2023-04-10T10:45:13.326Z,46.62
2023-04-10T10:46:13.391Z,46.43
2023-04-10T10:47:13.395Z,46.81
2023-04-10T10:48:13.414Z,47.20
2023-04-10T10:49:13.438Z,47.20
2023-04-10T10:50:13.471Z,47.10
2023-04-10T10:51:13.483Z,47.13
2023-04-10T10:52:13.518Z,47.61
2023-04-10T10:53:13.544Z,46.45
2023-04-10T10:54:13.572Z,45.10
2023-04-10T10:55:13.599Z,45.29
2023-04-10T10:56:13.628Z,45.10
2023-04-10T10:57:13.656Z,44.72
2023-04-10T10:58:13.683Z,44.53
2023-04-10T10:59:13.714Z,43.95
2023-04-10T11:00:13.745Z,44.14
2023-04-10T11:01:13.794Z,43.95
2023-04-10T11:02:13.860Z,43.57
2023-04-10T11:03:13.977Z,43.57
2023-04-10T11:04:13.883Z,43.28
2023-04-10T11:05:13.882Z,42.89
2023-04-10T11:06:13.916Z,43.28
2023-04-10T11:07:13.944Z,43.47
2023-04-10T11:08:13.973Z,43.85
2023-04-10T11:09:13.998Z,44.05
2023-04-10T11:10:14.028Z,43.66
2023-04-10T11:11:14.055Z,44.05
2023-04-10T11:12:14.086Z,43.95
2023-04-10T11:13:14.115Z,44.14
2023-04-10T11:14:14.144Z,43.95
2023-04-10T11:15:14.169Z,44.45
2023-04-10T11:16:14.219Z,44.35
2023-04-10T11:17:14.229Z,44.45
2023-04-10T11:18:14.257Z,44.17
2023-04-10T11:19:15.803Z,44.35
2023-04-10T11:20:14.395Z,43.88
2023-04-10T11:21:14.343Z,43.40
2023-04-10T11:22:14.392Z,43.11
2023-04-10T11:23:14.405Z,43.01
2023-04-10T11:24:14.438Z,43.20
2023-04-10T11:25:14.466Z,43.01
2023-04-10T11:26:14.501Z,42.63
2023-04-10T11:27:14.518Z,42.24
2023-04-10T11:28:14.548Z,41.95
2023-04-10T11:29:14.589Z,42.43
2023-04-10T11:30:14.615Z,42.33
2023-04-10T11:31:14.634Z,42.53
2023-04-10T11:32:14.792Z,42.89
2023-04-10T11:33:14.689Z,42.99
2023-04-10T11:34:14.719Z,42.89
2023-04-10T11:35:14.754Z,43.40
2023-04-10T11:36:14.773Z,43.47
2023-04-10T11:37:14.803Z,43.78
2023-04-10T11:38:14.843Z,43.78
2023-04-10T11:39:14.863Z,43.76
2023-04-10T11:40:14.906Z,42.72
2023-04-10T11:41:14.918Z,42.43
2023-04-10T11:42:14.944Z,42.43
2023-04-10T11:43:15.041Z,42.43
2023-04-10T11:44:15.003Z,42.53
2023-04-10T11:45:15.038Z,42.53
2023-04-10T11:46:15.096Z,42.82
2023-04-10T11:47:15.092Z,42.53
2023-04-10T11:48:15.133Z,42.63
2023-04-10T11:49:15.144Z,42.63
2023-04-10T11:50:15.183Z,42.24
2023-04-10T11:51:15.240Z,42.24
2023-04-10T11:52:15.239Z,42.53
2023-04-10T11:53:15.265Z,43.03
2023-04-10T11:54:15.292Z,42.74
2023-04-10T11:55:15.322Z,41.88
2023-04-10T11:56:15.353Z,41.86
2023-04-10T11:57:15.382Z,41.38
2023-04-10T11:58:15.411Z,41.56
2023-04-10T11:59:15.439Z,41.47
2023-04-10T12:00:15.479Z,41.95
2023-04-10T12:01:15.522Z,41.86
2023-04-10T12:02:15.671Z,42.14
2023-04-10T12:03:15.737Z,42.24
2023-04-10T12:04:15.790Z,42.16
2023-04-10T12:05:15.724Z,42.36
2023-04-10T12:06:15.682Z,41.97
2023-04-10T12:07:15.689Z,41.97
2023-04-10T12:08:15.705Z,41.99
2023-04-10T12:09:15.753Z,41.89
2023-04-10T12:10:15.778Z,42.09
2023-04-10T12:11:15.792Z,41.99
2023-04-10T12:12:15.825Z,41.80
2023-04-10T12:13:15.854Z,41.61
2023-04-10T12:14:15.879Z,41.22
2023-04-10T12:15:15.921Z,42.09
2023-04-10T12:16:16.101Z,41.61
2023-04-10T12:17:15.964Z,41.89
2023-04-10T12:18:15.996Z,41.61
2023-04-10T12:19:16.026Z,40.84
2023-04-10T12:20:16.067Z,41.61
2023-04-10T12:21:16.088Z,41.80
2023-04-10T12:22:16.111Z,41.51
2023-04-10T12:23:16.144Z,41.71
2023-04-10T12:24:16.171Z,41.13
2023-04-10T12:25:16.217Z,41.61
2023-04-10T12:26:16.251Z,42.19
2023-04-10T12:27:16.261Z,42.09
2023-04-10T12:28:16.302Z,41.61
2023-04-10T12:29:16.318Z,41.71
2023-04-10T12:30:16.366Z,41.71
2023-04-10T12:31:16.395Z,41.14
2023-04-10T12:32:16.427Z,40.74
2023-04-10T12:33:16.440Z,41.34
2023-04-10T12:34:16.472Z,41.63
2023-04-10T12:35:16.511Z,40.28
2023-04-10T12:36:16.528Z,39.99
2023-04-10T12:37:16.565Z,41.13
2023-04-10T12:38:16.594Z,41.53
2023-04-10T12:39:16.622Z,41.44
2023-04-10T12:40:16.656Z,41.53
2023-04-10T12:41:16.681Z,41.05
2023-04-10T12:42:16.711Z,40.19
2023-04-10T12:43:16.740Z,40.19
2023-04-10T12:44:16.769Z,40.28
2023-04-10T12:45:16.806Z,40.28
2023-04-10T12:46:16.873Z,38.81
2023-04-10T12:47:16.857Z,39.11
2023-04-10T12:48:16.890Z,39.20
2023-04-10T12:49:16.931Z,39.20
2023-04-10T12:50:16.978Z,39.29
2023-04-10T12:51:16.981Z,39.68
2023-04-10T12:52:17.009Z,40.16
2023-04-10T12:53:17.039Z,40.07
2023-04-10T12:54:17.066Z,40.16
2023-04-10T12:55:17.099Z,39.97
2023-04-10T12:56:17.128Z,39.78
2023-04-10T12:57:17.158Z,39.56
2023-04-10T12:58:17.194Z,40.14
2023-04-10T12:59:17.233Z,40.14
2023-04-10T13:00:17.265Z,40.14
2023-04-10T13:01:17.297Z,39.95
2023-04-10T13:02:17.396Z,40.14
2023-04-10T13:03:17.504Z,39.56
2023-04-10T13:04:17.441Z,39.66